| time (UTC) | temp F | wind direction | speed MPH | gust MPH | rain 1hr in | rain 24hr in | rain mn in | humidity % | barometer mb |
| 20260506024020 | 54 | 18 | 13.0 | 25.0 | 0.00 | 0.07 | 0.07 | 60 | 1017.3 |
| 20260506023531 | 54 | 326 | 9.0 | 25.0 | 0.00 | 0.07 | 0.07 | 58 | 1017.1 |
| 20260506023021 | 55 | 342 | 11.0 | 19.0 | 0.00 | 0.07 | 0.07 | 56 | 1017.0 |
| 20260506022535 | 57 | 26 | 11.0 | 18.0 | 0.00 | 0.07 | 0.07 | 54 | 1016.7 |
| 20260506022045 | 57 | 334 | 2.0 | 6.0 | 0.00 | 0.07 | 0.07 | 54 | 1016.3 |
| 20260506021521 | 57 | 285 | 0.0 | 3.0 | 0.00 | 0.07 | 0.07 | 53 | 1016.3 |
| 20260506021033 | 57 | 280 | 1.0 | 3.0 | 0.00 | 0.07 | 0.07 | 53 | 1016.1 |
| 20260506020544 | 58 | 264 | 0.0 | 3.0 | 0.00 | 0.07 | 0.07 | 52 | 1016.0 |
| 20260506020026 | 58 | 250 | 1.0 | 4.0 | 0.00 | 0.07 | 0.07 | 51 | 1015.7 |
| 20260506015539 | 58 | 265 | 2.0 | 4.0 | 0.00 | 0.07 | 0.07 | 51 | 1015.5 |
| 20260506015029 | 58 | 272 | 0.0 | 4.0 | 0.00 | 0.07 | 0.07 | 52 | 1015.5 |
| 20260506014533 | 59 | 274 | 1.0 | 6.0 | 0.00 | 0.07 | 0.07 | 51 | 1015.5 |
| 20260506014024 | 59 | 219 | 3.0 | 5.0 | 0.00 | 0.07 | 0.07 | 51 | 1015.4 |
| 20260506013526 | 59 | 273 | 2.0 | 4.0 | 0.00 | 0.07 | 0.07 | 50 | 1015.4 |
| 20260506013038 | 59 | 250 | 1.0 | 5.0 | 0.00 | 0.07 | 0.07 | 49 | 1015.4 |
| 20260506012030 | 60 | 264 | 1.0 | 4.0 | 0.00 | 0.07 | 0.07 | 49 | 1015.4 |
| 20260506011522 | 60 | 278 | 1.0 | 6.0 | 0.00 | 0.07 | 0.07 | 49 | 1015.4 |
| 20260506011023 | 60 | 268 | 2.0 | 6.0 | 0.00 | 0.07 | 0.07 | 47 | 1015.3 |
| 20260506010535 | 60 | 262 | 0.0 | 5.0 | 0.00 | 0.07 | 0.07 | 49 | 1015.2 |
| 20260506010026 | 61 | 262 | 1.0 | 3.0 | 0.00 | 0.07 | 0.07 | 52 | 1015.2 |
| 20260506005531 | 60 | 123 | 0.0 | 1.0 | 0.00 | 0.07 | 0.07 | 53 | 1015.2 |
| 20260506005057 | 60 | 123 | 1.0 | 4.0 | 0.00 | 0.07 | 0.07 | 52 | 1015.2 |
| 20260506004528 | 59 | 255 | 0.0 | 4.0 | 0.00 | 0.07 | 0.07 | 54 | 1015.4 |
| 20260506004040 | 59 | 255 | 2.0 | 3.0 | 0.00 | 0.07 | 0.07 | 53 | 1015.4 |
| 20260506003522 | 59 | 205 | 0.0 | 1.0 | 0.00 | 0.07 | 0.07 | 52 | 1015.1 |
| 20260506003034 | 59 | 170 | 0.0 | 1.0 | 0.00 | 0.07 | 0.07 | 53 | 1015.2 |
| 20260506002549 | 59 | 212 | 0.0 | 3.0 | 0.00 | 0.07 | 0.07 | 52 | 1015.2 |
| 20260506002028 | 60 | 222 | 2.0 | 4.0 | 0.00 | 0.07 | 0.07 | 52 | 1015.3 |
| 20260506001540 | 60 | 225 | 2.0 | 4.0 | 0.00 | 0.07 | 0.07 | 50 | 1015.1 |
| 20260506001022 | 60 | 127 | 1.0 | 3.0 | 0.00 | 0.07 | 0.07 | 52 | 1014.9 |
| 20260506000534 | 60 | 153 | 2.0 | 3.0 | 0.00 | 0.07 | 0.07 | 51 | 1015.0 |
| 20260506000047 | 60 | 100 | 1.0 | 3.0 | 0.00 | 0.07 | 0.07 | 50 | 1015.1 |
| 20260505235530 | 60 | 281 | 1.0 | 2.0 | 0.00 | 0.07 | 0.07 | 52 | 1015.2 |
| 20260505235039 | 60 | 285 | 1.0 | 5.0 | 0.00 | 0.07 | 0.07 | 49 | 1015.1 |
| 20260505234522 | 61 | 141 | 2.0 | 5.0 | 0.00 | 0.07 | 0.07 | 50 | 1015.1 |
| 20260505234033 | 61 | 106 | 1.0 | 4.0 | 0.00 | 0.07 | 0.07 | 50 | 1015.0 |
| 20260505233545 | 60 | 212 | 2.0 | 4.0 | 0.00 | 0.07 | 0.07 | 51 | 1015.1 |
| 20260505233035 | 61 | 51 | 1.0 | 4.0 | 0.00 | 0.07 | 0.07 | 54 | 1015.1 |
| 20260505232605 | 60 | 47 | 1.0 | 4.0 | 0.00 | 0.07 | 0.07 | 54 | 1015.2 |
| 20260505232024 | 59 | 80 | 3.0 | 7.0 | 0.00 | 0.07 | 0.07 | 56 | 1015.3 |
| 20260505231536 | 60 | 100 | 4.0 | 7.0 | 0.00 | 0.07 | 0.07 | 54 | 1015.6 |
| 20260505231047 | 59 | 29 | 1.0 | 4.0 | 0.00 | 0.07 | 0.07 | 58 | 1015.8 |
| 20260505230530 | 59 | 167 | 1.0 | 4.0 | 0.01 | 0.07 | 0.07 | 57 | 1015.8 |
| 20260505230042 | 60 | 156 | 2.0 | 4.0 | 0.02 | 0.07 | 0.07 | 58 | 1015.6 |
| 20260505225526 | 59 | 218 | 0.0 | 6.0 | 0.02 | 0.07 | 0.07 | 62 | 1015.5 |
| 20260505225036 | 59 | 34 | 2.0 | 6.0 | 0.04 | 0.07 | 0.07 | 60 | 1015.6 |
| 20260505224548 | 59 | 113 | 1.0 | 4.0 | 0.05 | 0.07 | 0.07 | 64 | 1015.6 |
| 20260505224029 | 58 | 341 | 1.0 | 4.0 | 0.06 | 0.07 | 0.07 | 59 | 1015.7 |
| 20260505223602 | 58 | 39 | 1.0 | 3.0 | 0.06 | 0.07 | 0.07 | 65 | 1015.7 |
| 20260505223033 | 57 | 113 | 0.0 | 3.0 | 0.06 | 0.07 | 0.07 | 64 | 1015.8 |
| 20260505222536 | 57 | 43 | 1.0 | 2.0 | 0.06 | 0.07 | 0.07 | 68 | 1016.0 |
| 20260505222027 | 56 | 53 | 0.0 | 1.0 | 0.06 | 0.07 | 0.07 | 68 | 1016.2 |
| 20260505221537 | 56 | 53 | 0.0 | 6.0 | 0.06 | 0.07 | 0.07 | 73 | 1016.2 |
| 20260505221049 | 55 | 333 | 2.0 | 8.0 | 0.06 | 0.07 | 0.07 | 73 | 1016.5 |
| 20260505220552 | 54 | 271 | 4.0 | 9.0 | 0.05 | 0.06 | 0.06 | 75 | 1016.7 |
| 20260505220023 | 54 | 273 | 3.0 | 7.0 | 0.04 | 0.05 | 0.05 | 73 | 1016.8 |
| 20260505215551 | 55 | 274 | 1.0 | 12.0 | 0.04 | 0.05 | 0.05 | 69 | 1016.8 |
| 20260505215033 | 56 | 202 | 4.0 | 15.0 | 0.02 | 0.03 | 0.03 | 63 | 1016.8 |
| 20260505214522 | 58 | 236 | 8.0 | 15.0 | 0.00 | 0.01 | 0.01 | 56 | 1016.5 |
| 20260505214033 | 59 | 253 | 4.0 | 11.0 | 0.00 | 0.01 | 0.01 | 54 | 1016.5 |
| 20260505213604 | 60 | 260 | 5.0 | 10.0 | 0.00 | 0.01 | 0.01 | 52 | 1016.4 |
| 20260505213026 | 60 | 271 | 4.0 | 10.0 | 0.00 | 0.01 | 0.01 | 50 | 1016.4 |
| 20260505212539 | 61 | 243 | 2.0 | 8.0 | 0.00 | 0.01 | 0.01 | 50 | 1016.4 |
| 20260505212050 | 61 | 357 | 3.0 | 8.0 | 0.00 | 0.01 | 0.01 | 50 | 1016.3 |
| 20260505211531 | 61 | 267 | 2.0 | 7.0 | 0.00 | 0.01 | 0.01 | 51 | 1016.3 |
| 20260505211022 | 60 | 205 | 4.0 | 7.0 | 0.00 | 0.01 | 0.01 | 50 | 1016.5 |
| 20260505210037 | 61 | 329 | 2.0 | 7.0 | 0.00 | 0.01 | 0.01 | 50 | 1016.6 |
| 20260505205530 | 61 | 323 | 3.0 | 7.0 | 0.00 | 0.01 | 0.01 | 51 | 1016.5 |
| 20260505205041 | 62 | 321 | 4.0 | 7.0 | 0.00 | 0.01 | 0.01 | 50 | 1016.5 |
| 20260505204606 | 62 | 11 | 1.0 | 6.0 | 0.00 | 0.01 | 0.01 | 51 | 1016.5 |
| 20260505204028 | 61 | 54 | 1.0 | 8.0 | 0.00 | 0.01 | 0.01 | 51 | 1016.6 |
| 20260505203537 | 61 | 285 | 4.0 | 8.0 | 0.00 | 0.01 | 0.01 | 52 | 1016.8 |
| 20260505203048 | 61 | 261 | 2.0 | 6.0 | 0.00 | 0.01 | 0.01 | 52 | 1016.9 |
| 20260505202600 | 61 | 97 | 3.0 | 7.0 | 0.00 | 0.01 | 0.01 | 52 | 1017.0 |
| 20260505202048 | 60 | 179 | 1.0 | 8.0 | 0.00 | 0.01 | 0.01 | 53 | 1016.8 |
| 20260505201523 | 60 | 328 | 3.0 | 8.0 | 0.00 | 0.01 | 0.01 | 54 | 1016.9 |
| 20260505201035 | 60 | 285 | 3.0 | 8.0 | 0.00 | 0.01 | 0.01 | 55 | 1016.9 |
| 20260505200547 | 59 | 293 | 4.0 | 8.0 | 0.00 | 0.01 | 0.01 | 55 | 1016.9 |
| 20260505200037 | 59 | 309 | 2.0 | 6.0 | 0.00 | 0.01 | 0.01 | 57 | 1017.0 |
| 20260505195542 | 58 | 302 | 3.0 | 7.0 | 0.00 | 0.01 | 0.01 | 59 | 1017.0 |
| 20260505195050 | 57 | 319 | 2.0 | 7.0 | 0.00 | 0.01 | 0.01 | 59 | 1017.2 |
| 20260505194556 | 57 | 325 | 2.0 | 6.0 | 0.00 | 0.01 | 0.01 | 59 | 1017.4 |
| 20260505194026 | 57 | 260 | 3.0 | 8.0 | 0.01 | 0.01 | 0.01 | 61 | 1017.3 |
| 20260505193558 | 57 | 281 | 4.0 | 8.0 | 0.01 | 0.01 | 0.01 | 62 | 1017.4 |
| 20260505193039 | 57 | 266 | 3.0 | 6.0 | 0.01 | 0.01 | 0.01 | 61 | 1017.3 |
| 20260505192532 | 57 | 342 | 1.0 | 8.0 | 0.01 | 0.01 | 0.01 | 64 | 1017.4 |
| 20260505192041 | 57 | 276 | 3.0 | 8.0 | 0.01 | 0.01 | 0.01 | 65 | 1017.5 |
| 20260505191524 | 57 | 293 | 4.0 | 7.0 | 0.01 | 0.01 | 0.01 | 66 | 1017.6 |
| 20260505191035 | 56 | 355 | 2.0 | 8.0 | 0.01 | 0.01 | 0.01 | 71 | 1017.6 |
| 20260505190547 | 56 | 284 | 2.0 | 8.0 | 0.01 | 0.01 | 0.01 | 75 | 1017.6 |
| 20260505190026 | 55 | 259 | 2.0 | 6.0 | 0.01 | 0.01 | 0.01 | 76 | 1017.6 |
| 20260505185540 | 55 | 304 | 3.0 | 6.0 | 0.01 | 0.01 | 0.01 | 72 | 1017.6 |
| 20260505185021 | 54 | 291 | 3.0 | 7.0 | 0.01 | 0.01 | 0.01 | 71 | 1017.6 |
| 20260505184553 | 55 | 281 | 2.0 | 8.0 | 0.01 | 0.01 | 0.01 | 69 | 1017.7 |
| 20260505184024 | 56 | 281 | 5.0 | 8.0 | 0.00 | 0.00 | 0.00 | 63 | 1017.7 |
| 20260505183534 | 56 | 264 | 2.0 | 8.0 | 0.00 | 0.00 | 0.00 | 60 | 1017.6 |
| 20260505183041 | 57 | 271 | 5.0 | 11.0 | 0.00 | 0.00 | 0.00 | 58 | 1017.6 |
| 20260505182524 | 58 | 269 | 8.0 | 11.0 | 0.00 | 0.00 | 0.00 | 54 | 1017.3 |
| 20260505182033 | 58 | 269 | 4.0 | 10.0 | 0.00 | 0.00 | 0.00 | 53 | 1017.4 |
| 20260505181543 | 59 | 275 | 5.0 | 10.0 | 0.00 | 0.00 | 0.00 | 51 | 1017.5 |
| 20260505181025 | 60 | 324 | 6.0 | 9.0 | 0.00 | 0.00 | 0.00 | 48 | 1017.4 |
| 20260505180534 | 60 | 243 | 2.0 | 8.0 | 0.00 | 0.00 | 0.00 | 46 | 1017.4 |
| 20260505180046 | 61 | 203 | 3.0 | 7.0 | 0.00 | 0.00 | 0.00 | 46 | 1017.4 |
| 20260505175558 | 62 | 229 | 4.0 | 9.0 | 0.00 | 0.00 | 0.00 | 45 | 1017.3 |
| 20260505175106 | 61 | 202 | 3.0 | 9.0 | 0.00 | 0.00 | 0.00 | 46 | 1017.3 |
| 20260505174535 | 61 | 210 | 4.0 | 8.0 | 0.00 | 0.00 | 0.00 | 45 | 1017.3 |
| 20260505174037 | 60 | 142 | 3.0 | 6.0 | 0.00 | 0.00 | 0.00 | 46 | 1017.4 |
| 20260505173528 | 60 | 183 | 3.0 | 6.0 | 0.00 | 0.00 | 0.00 | 48 | 1017.3 |
| 20260505173034 | 59 | 210 | 2.0 | 7.0 | 0.00 | 0.00 | 0.00 | 48 | 1017.3 |
| 20260505172527 | 59 | 50 | 4.0 | 7.0 | 0.00 | 0.00 | 0.00 | 48 | 1017.4 |
| 20260505172026 | 59 | 65 | 1.0 | 5.0 | 0.00 | 0.00 | 0.00 | 48 | 1017.4 |
| 20260505171537 | 58 | 262 | 3.0 | 5.0 | 0.00 | 0.00 | 0.00 | 49 | 1017.4 |
| 20260505171046 | 58 | 282 | 0.0 | 4.0 | 0.00 | 0.00 | 0.00 | 50 | 1017.5 |
| 20260505170558 | 58 | 25 | 2.0 | 4.0 | 0.00 | 0.00 | 0.00 | 49 | 1017.7 |
| 20260505170040 | 57 | 316 | 1.0 | 5.0 | 0.00 | 0.00 | 0.00 | 50 | 1017.9 |
| 20260505165534 | 56 | 336 | 2.0 | 6.0 | 0.00 | 0.00 | 0.00 | 52 | 1017.8 |
| 20260505165043 | 56 | 329 | 4.0 | 6.0 | 0.00 | 0.00 | 0.00 | 51 | 1017.7 |
| 20260505164525 | 56 | 323 | 3.0 | 6.0 | 0.00 | 0.00 | 0.00 | 51 | 1017.5 |
| 20260505164057 | 56 | 37 | 1.0 | 6.0 | 0.00 | 0.00 | 0.00 | 54 | 1017.5 |
| 20260505163527 | 56 | 347 | 3.0 | 9.0 | 0.00 | 0.00 | 0.00 | 54 | 1017.8 |
| 20260505163029 | 55 | 348 | 4.0 | 9.0 | 0.00 | 0.00 | 0.00 | 55 | 1017.7 |
| 20260505162543 | 55 | 33 | 5.0 | 7.0 | 0.00 | 0.00 | 0.00 | 56 | 1017.7 |
| 20260505162032 | 54 | 13 | 3.0 | 9.0 | 0.00 | 0.00 | 0.00 | 56 | 1017.7 |
| 20260505161530 | 54 | 335 | 4.0 | 10.0 | 0.00 | 0.00 | 0.00 | 58 | 1018.0 |
| 20260505161101 | 54 | 337 | 5.0 | 10.0 | 0.00 | 0.00 | 0.00 | 59 | 1018.1 |
| 20260505160532 | 54 | 12 | 5.0 | 10.0 | 0.00 | 0.00 | 0.00 | 59 | 1018.1 |
| 20260505153026 | 54 | 336 | 5.0 | 13.0 | 0.00 | 0.00 | 0.00 | 61 | 1018.3 |
| 20260505152609 | 54 | 335 | 6.0 | 13.0 | 0.00 | 0.00 | 0.00 | 62 | 1018.3 |
| 20260505152027 | 54 | 339 | 5.0 | 11.0 | 0.00 | 0.00 | 0.00 | 62 | 1018.4 |
| 20260505151538 | 54 | 4 | 5.0 | 11.0 | 0.00 | 0.00 | 0.00 | 62 | 1018.4 |
| 20260505151020 | 54 | 328 | 4.0 | 8.0 | 0.00 | 0.00 | 0.00 | 65 | 1018.3 |
| 20260505150533 | 54 | 15 | 4.0 | 9.0 | 0.00 | 0.00 | 0.00 | 65 | 1018.4 |
| 20260505140525 | 55 | 344 | 6.0 | 19.0 | 0.00 | 0.00 | 0.00 | 53 | 1018.6 |
| 20260505125026 | 58 | 269 | 0.0 | 3.0 | 0.00 | 0.00 | 0.00 | 45 | 1017.5 |
| 20260505124538 | 58 | 325 | 0.0 | 5.0 | 0.00 | 0.00 | 0.00 | 44 | 1017.2 |
| 20260505124050 | 58 | 334 | 2.0 | 5.0 | 0.00 | 0.00 | 0.00 | 44 | 1017.4 |
| 20260505123531 | 58 | 319 | 2.0 | 4.0 | 0.00 | 0.00 | 0.00 | 44 | 1017.5 |
| 20260505123022 | 58 | 316 | 1.0 | 4.0 | 0.00 | 0.00 | 0.00 | 44 | 1017.5 |
| 20260505122535 | 58 | 269 | 0.0 | 5.0 | 0.00 | 0.00 | 0.00 | 44 | 1017.5 |
| 20260505122036 | 58 | 278 | 1.0 | 5.0 | 0.00 | 0.00 | 0.00 | 43 | 1017.5 |
| 20260505121601 | 58 | 271 | 0.0 | 7.0 | 0.00 | 0.00 | 0.00 | 43 | 1017.5 |
| 20260505121031 | 58 | 274 | 3.0 | 7.0 | 0.00 | 0.00 | 0.00 | 43 | 1017.6 |
| 20260505120543 | 58 | 238 | 1.0 | 5.0 | 0.00 | 0.00 | 0.00 | 42 | 1017.5 |
| 20260505120026 | 57 | 6 | 0.0 | 2.0 | 0.00 | 0.00 | 0.00 | 41 | 1017.4 |
| 20260505115540 | 57 | 89 | 0.0 | 1.0 | 0.00 | 0.00 | 0.00 | 41 | 1017.3 |
| 20260505115040 | 57 | 98 | 0.0 | 0.0 | 0.00 | 0.00 | 0.00 | 40 | 1017.3 |
| 20260505114531 | 57 | 98 | 0.0 | 0.0 | 0.00 | 0.00 | 0.00 | 41 | 1017.3 |
| 20260505114021 | 58 | 98 | 0.0 | 1.0 | 0.00 | 0.00 | 0.00 | 40 | 1017.2 |
| 20260505113522 | 58 | 98 | 1.0 | 1.0 | 0.00 | 0.00 | 0.00 | 40 | 1017.1 |
| 20260505113054 | 58 | 98 | 0.0 | 1.0 | 0.00 | 0.00 | 0.00 | 39 | 1017.2 |
| 20260505112525 | 58 | 98 | 0.0 | 0.0 | 0.00 | 0.00 | 0.00 | 38 | 1017.2 |
| 20260505112055 | 58 | 311 | 0.0 | 1.0 | 0.00 | 0.00 | 0.00 | 38 | 1017.2 |
| 20260505111525 | 58 | 311 | 0.0 | 1.0 | 0.00 | 0.00 | 0.00 | 38 | 1017.1 |
| 20260505111052 | 58 | 295 | 0.0 | 1.0 | 0.00 | 0.00 | 0.00 | 37 | 1017.2 |
| 20260505110543 | 59 | 271 | 0.0 | 3.0 | 0.00 | 0.00 | 0.00 | 37 | 1017.4 |
| 20260505102029 | 59 | 283 | 3.0 | 8.0 | 0.00 | 0.00 | 0.00 | 35 | 1017.4 |
| 20260505101540 | 59 | 271 | 4.0 | 7.0 | 0.00 | 0.00 | 0.00 | 35 | 1017.4 |
| 20260505101050 | 59 | 274 | 1.0 | 4.0 | 0.00 | 0.00 | 0.00 | 36 | 1017.2 |
| 20260505100522 | 59 | 261 | 0.0 | 2.0 | 0.00 | 0.00 | 0.00 | 35 | 1017.1 |
| 20260505100034 | 59 | 268 | 0.0 | 2.0 | 0.00 | 0.00 | 0.00 | 35 | 1017.2 |
| 20260505095547 | 59 | 356 | 0.0 | 1.0 | 0.00 | 0.00 | 0.00 | 35 | 1017.2 |
| 20260505095028 | 59 | 356 | 0.0 | 2.0 | 0.00 | 0.00 | 0.00 | 35 | 1017.3 |
| 20260505094535 | 59 | 356 | 0.0 | 3.0 | 0.00 | 0.00 | 0.00 | 35 | 1017.3 |
| 20260505094047 | 59 | 15 | 1.0 | 3.0 | 0.00 | 0.00 | 0.00 | 35 | 1017.2 |
| 20260505093558 | 60 | 31 | 1.0 | 3.0 | 0.00 | 0.00 | 0.00 | 34 | 1017.1 |
| 20260505093036 | 60 | 354 | 1.0 | 1.0 | 0.00 | 0.00 | 0.00 | 34 | 1017.1 |
| 20260505092529 | 60 | 261 | 0.0 | 4.0 | 0.00 | 0.00 | 0.00 | 34 | 1017.1 |
| 20260505092038 | 60 | 261 | 0.0 | 5.0 | 0.00 | 0.00 | 0.00 | 33 | 1017.2 |
| 20260505091520 | 60 | 262 | 3.0 | 5.0 | 0.00 | 0.00 | 0.00 | 33 | 1017.2 |
| 20260505091032 | 60 | 232 | 2.0 | 4.0 | 0.00 | 0.00 | 0.00 | 33 | 1017.3 |
| 20260505090543 | 60 | 268 | 2.0 | 4.0 | 0.00 | 0.00 | 0.00 | 33 | 1017.4 |
| 20260505090025 | 60 | 257 | 1.0 | 2.0 | 0.00 | 0.00 | 0.00 | 33 | 1017.6 |
| 20260505085540 | 60 | 250 | 1.0 | 2.0 | 0.00 | 0.00 | 0.00 | 33 | 1017.7 |
| 20260505085027 | 61 | 265 | 0.0 | 2.0 | 0.00 | 0.00 | 0.00 | 33 | 1017.7 |
| 20260505084539 | 61 | 265 | 0.0 | 3.0 | 0.00 | 0.00 | 0.00 | 33 | 1017.7 |
| 20260505084041 | 61 | 261 | 1.0 | 6.0 | 0.00 | 0.00 | 0.00 | 32 | 1017.8 |
| 20260505083527 | 61 | 248 | 3.0 | 6.0 | 0.00 | 0.00 | 0.00 | 32 | 1017.9 |
| 20260505083038 | 61 | 286 | 1.0 | 6.0 | 0.00 | 0.00 | 0.00 | 32 | 1018.1 |
| 20260505082522 | 61 | 261 | 2.0 | 8.0 | 0.00 | 0.00 | 0.00 | 32 | 1018.0 |
| 20260505082033 | 62 | 255 | 3.0 | 8.0 | 0.00 | 0.00 | 0.00 | 32 | 1017.9 |
| 20260505081545 | 62 | 290 | 2.0 | 8.0 | 0.00 | 0.00 | 0.00 | 32 | 1017.9 |
| 20260505081028 | 62 | 274 | 3.0 | 9.0 | 0.00 | 0.00 | 0.00 | 31 | 1017.8 |
| 20260505080629 | 62 | 253 | 4.0 | 9.0 | 0.00 | 0.00 | 0.00 | 32 | 1017.7 |
| 20260505080025 | 62 | 270 | 2.0 | 7.0 | 0.00 | 0.00 | 0.00 | 31 | 1017.8 |
| 20260505075540 | 62 | 266 | 3.0 | 10.0 | 0.00 | 0.00 | 0.00 | 31 | 1018.0 |
| 20260505075028 | 62 | 323 | 3.0 | 10.0 | 0.00 | 0.00 | 0.00 | 31 | 1018.1 |
| 20260505074531 | 63 | 249 | 5.0 | 15.0 | 0.00 | 0.00 | 0.00 | 31 | 1017.8 |
| 20260505074022 | 63 | 259 | 9.0 | 15.0 | 0.00 | 0.00 | 0.00 | 31 | 1017.8 |
| 20260505073553 | 63 | 256 | 8.0 | 15.0 | 0.00 | 0.00 | 0.00 | 31 | 1017.8 |
| 20260505073043 | 63 | 238 | 7.0 | 16.0 | 0.00 | 0.00 | 0.00 | 31 | 1017.7 |
| 20260505072552 | 63 | 244 | 9.0 | 17.0 | 0.00 | 0.00 | 0.00 | 31 | 1017.8 |
| 20260505072028 | 63 | 252 | 9.0 | 17.0 | 0.00 | 0.00 | 0.00 | 30 | 1017.8 |
| 20260505071540 | 63 | 337 | 7.0 | 17.0 | 0.00 | 0.00 | 0.00 | 30 | 1017.8 |
| 20260505071031 | 64 | 276 | 10.0 | 17.0 | 0.00 | 0.00 | 0.00 | 30 | 1017.7 |
| 20260505070534 | 64 | 252 | 8.0 | 17.0 | 0.00 | 0.00 | 0.00 | 30 | 1017.7 |
| 20260505070046 | 64 | 264 | 7.0 | 19.0 | 0.00 | 0.00 | 0.00 | 29 | 1017.5 |
| 20260505065539 | 64 | 295 | 6.0 | 17.0 | 0.00 | 0.00 | 0.00 | 29 | 1017.4 |
| 20260505065046 | 64 | 217 | 7.0 | 14.0 | 0.00 | 0.00 | 0.00 | 28 | 1017.3 |
| 20260505064529 | 64 | 282 | 6.0 | 15.0 | 0.00 | 0.00 | 0.00 | 28 | 1017.3 |
| 20260505064037 | 65 | 303 | 7.0 | 15.0 | 0.00 | 0.00 | 0.00 | 27 | 1017.3 |
| 20260505063540 | 65 | 266 | 5.0 | 11.0 | 0.00 | 0.00 | 0.00 | 27 | 1017.3 |
| 20260505063030 | 65 | 251 | 5.0 | 14.0 | 0.00 | 0.00 | 0.00 | 27 | 1017.1 |
| 20260505062602 | 65 | 257 | 7.0 | 14.0 | 0.00 | 0.00 | 0.00 | 27 | 1017.2 |
| 20260505062022 | 65 | 259 | 6.0 | 13.0 | 0.00 | 0.00 | 0.00 | 27 | 1017.3 |
| 20260505061533 | 65 | 256 | 6.0 | 14.0 | 0.00 | 0.00 | 0.00 | 26 | 1017.4 |
| 20260505061023 | 65 | 262 | 7.0 | 14.0 | 0.00 | 0.00 | 0.00 | 26 | 1017.4 |
| 20260505060521 | 65 | 255 | 6.0 | 13.0 | 0.00 | 0.00 | 0.00 | 26 | 1017.4 |
| 20260505060045 | 66 | 243 | 7.0 | 15.0 | 0.00 | 0.00 | 0.00 | 26 | 1017.4 |
| 20260505055541 | 66 | 271 | 9.0 | 15.0 | 0.00 | 0.00 | 0.00 | 26 | 1017.5 |
| 20260505055029 | 66 | 269 | 9.0 | 16.0 | 0.00 | 0.00 | 0.00 | 25 | 1017.5 |
| 20260505054531 | 66 | 272 | 9.0 | 16.0 | 0.00 | 0.00 | 0.00 | 25 | 1017.4 |
| 20260505054023 | 66 | 245 | 6.0 | 15.0 | 0.00 | 0.00 | 0.00 | 25 | 1017.3 |
| 20260505053534 | 66 | 271 | 6.0 | 11.0 | 0.00 | 0.00 | 0.00 | 25 | 1017.3 |
| 20260505053036 | 66 | 256 | 5.0 | 11.0 | 0.00 | 0.00 | 0.00 | 25 | 1017.1 |
| 20260505052550 | 67 | 300 | 7.0 | 14.0 | 0.00 | 0.00 | 0.00 | 24 | 1017.0 |
| 20260505052038 | 67 | 267 | 6.0 | 15.0 | 0.00 | 0.00 | 0.00 | 24 | 1017.2 |
| 20260505051521 | 67 | 260 | 6.0 | 15.0 | 0.00 | 0.00 | 0.00 | 24 | 1017.1 |
| 20260505051033 | 67 | 262 | 4.0 | 9.0 | 0.00 | 0.00 | 0.00 | 24 | 1017.0 |
| 20260505050544 | 67 | 269 | 4.0 | 8.0 | 0.00 | 0.00 | 0.00 | 24 | 1017.1 |
| 20260505041537 | 68 | 270 | 2.0 | 4.0 | 0.00 | 0.00 | 0.00 | 24 | 1017.0 |
| 20260505041050 | 68 | 284 | 1.0 | 3.0 | 0.00 | 0.00 | 0.00 | 24 | 1017.0 |
| 20260505040559 | 68 | 273 | 1.0 | 7.0 | 0.00 | 0.00 | 0.00 | 24 | 1017.0 |
| 20260505040020 | 68 | 274 | 1.0 | 10.0 | 0.00 | 0.00 | 0.00 | 24 | 1017.0 |
| 20260505035534 | 68 | 252 | 3.0 | 10.0 | 0.00 | 0.00 | 0.00 | 24 | 1017.0 |
| 20260505035043 | 68 | 325 | 0.0 | 5.0 | 0.00 | 0.00 | 0.00 | 24 | 1016.9 |
| 20260505034545 | 69 | 324 | 1.0 | 5.0 | 0.00 | 0.00 | 0.00 | 23 | 1017.0 |
| 20260505034035 | 69 | 288 | 1.0 | 8.0 | 0.00 | 0.00 | 0.00 | 23 | 1016.8 |
| 20260505033544 | 69 | 279 | 4.0 | 8.0 | 0.00 | 0.00 | 0.00 | 23 | 1016.7 |
| 20260505033026 | 69 | 265 | 2.0 | 8.0 | 0.00 | 0.00 | 0.00 | 23 | 1016.6 |
| 20260505032540 | 69 | 245 | 3.0 | 8.0 | 0.00 | 0.00 | 0.00 | 23 | 1016.6 |
| 20260505032021 | 69 | 276 | 4.0 | 8.0 | 0.00 | 0.00 | 0.00 | 23 | 1016.5 |
| 20260505031529 | 69 | 278 | 4.0 | 8.0 | 0.00 | 0.00 | 0.00 | 22 | 1016.4 |
| 20260505031040 | 69 | 263 | 3.0 | 10.0 | 0.00 | 0.00 | 0.00 | 22 | 1016.4 |
| 20260505030523 | 69 | 279 | 3.0 | 11.0 | 0.00 | 0.00 | 0.00 | 22 | 1016.3 |
| 20260505030035 | 70 | 304 | 3.0 | 11.0 | 0.00 | 0.00 | 0.00 | 22 | 1016.2 |
| 20260505025548 | 70 | 282 | 4.0 | 10.0 | 0.00 | 0.00 | 0.00 | 22 | 1016.1 |
| 20260505025029 | 70 | 338 | 4.0 | 10.0 | 0.00 | 0.00 | 0.00 | 21 | 1016.1 |
| 20260505024541 | 70 | 184 | 5.0 | 11.0 | 0.00 | 0.00 | 0.00 | 21 | 1016.1 |